Airfield :
LOGIN :

Register | Disclaimer

   EN    FR    IT 

 










Legend :    VFR   Marginal VFR   IFR   Intensive IFR   Very Intensive IFR
Visi :
Ceiling :
>= 8 km
>= 3000ft
5 to 8 km
1000 to 3000 ft
1500m to 5 km
500 to 1000 ft
800 to 1500m
200 to 500 ft
< 800m
< 200 ft
Symbols :   Thunderstorms  Fog  Heavy snow  Heavy precipitations  Wind > 20 kt
SIGMETs :     Misc.  Thunderstorms  Icing  Turbulence  Mountain Waves  Volcanic Ashes







- Airport Elevation : 479 ft
- IATA code : DOL
- Download approach charts


LFRG - Deauville

CURRENT METAR :
  • 251200Z AUTO 31013KT CAVOK 13/06 Q1017 TEMPO SHRA BECMG 28015G27KT

EXPIRED METARs :
  • 251130Z AUTO 30012KT 9999 FEW020 BKN058 12/07 Q1017 TEMPO SHRA BECMG 28015G27KT
  • 251100Z AUTO 30014KT 270V340 9999 FEW020 SCT044 12/07 Q1017 TEMPO SHRA BECMG 28015G27KT
  • 251030Z AUTO 30011KT 9999 SCT018 SCT024 BKN030 12/08 Q1017 TEMPO SHRA BECMG 28015G27KT
  • 251000Z AUTO 30014KT 9999 BKN020 OVC025 11/07 Q1017 TEMPO SHRA
  • 250930Z AUTO 28012KT 9999 BKN018 OVC024 11/07 Q1017 TEMPO SHRA

TAF AMD TAF LFRG
Valid from the 25 at 12:00 until the 25 at 21:00 UTC


251157Z 2512/2521 29014KT 9999 BKN025
BECMG 2512/2514 28015G27KT
PROB30
TEMPO 2512/2518 5000 SHRA
BECMG 2519/2521 26012KT
ATIS : +33 2 31 65 65 36
No reported NOTAMs for that airfield.



MET'MAP, your aeronautical weather chart ! - Copyright ORBIFLY December 2007 - Disclaimer

ORBIFLY MET'MAP TEAM :

Programming & Development : Alexandra Zaïnal
Concept & Development : Baudouin d'Aumeries
Co-Development & Prog : Marc-Olivier Méhu
Technical & hardware support : Manuel Goepfert

Contact : metmap@orbifly.com




SOURCES & CREDITS :

   NOAA